sensor_id;sensor_type;location;lat;lon;timestamp;P1;durP1;ratioP1;P2;durP2;ratioP2
11962;SDS011;62678;52.130;5.584;2023-04-28T00:02:15;6.57;;;5.15;;
11962;SDS011;62678;52.130;5.584;2023-04-28T00:04:42;7.75;;;5.22;;
11962;SDS011;62678;52.130;5.584;2023-04-28T00:07:09;9.02;;;5.05;;
11962;SDS011;62678;52.130;5.584;2023-04-28T00:09:36;6.72;;;5.25;;
11962;SDS011;62678;52.130;5.584;2023-04-28T00:12:03;9.77;;;5.70;;
11962;SDS011;62678;52.130;5.584;2023-04-28T00:14:32;9.75;;;5.13;;
11962;SDS011;62678;52.130;5.584;2023-04-28T00:16:59;5.68;;;4.60;;
11962;SDS011;62678;52.130;5.584;2023-04-28T00:19:28;9.55;;;5.13;;
11962;SDS011;62678;52.130;5.584;2023-04-28T00:21:57;9.15;;;5.25;;
11962;SDS011;62678;52.130;5.584;2023-04-28T00:24:24;9.90;;;4.95;;
11962;SDS011;62678;52.130;5.584;2023-04-28T00:26:51;7.40;;;4.75;;
11962;SDS011;62678;52.130;5.584;2023-04-28T00:29:18;7.68;;;5.03;;
11962;SDS011;62678;52.130;5.584;2023-04-28T00:31:47;9.98;;;5.28;;
11962;SDS011;62678;52.130;5.584;2023-04-28T00:34:14;7.35;;;5.10;;
11962;SDS011;62678;52.130;5.584;2023-04-28T00:36:41;6.78;;;5.07;;
11962;SDS011;62678;52.130;5.584;2023-04-28T00:39:07;7.90;;;4.65;;
11962;SDS011;62678;52.130;5.584;2023-04-28T00:41:35;8.00;;;4.63;;
11962;SDS011;62678;52.130;5.584;2023-04-28T00:44:02;5.55;;;4.63;;
11962;SDS011;62678;52.130;5.584;2023-04-28T00:46:30;8.13;;;4.63;;
11962;SDS011;62678;52.130;5.584;2023-04-28T00:49:00;8.23;;;4.65;;
11962;SDS011;62678;52.130;5.584;2023-04-28T00:51:29;6.70;;;4.93;;
11962;SDS011;62678;52.130;5.584;2023-04-28T00:53:57;7.35;;;4.63;;
11962;SDS011;62678;52.130;5.584;2023-04-28T00:56:25;5.80;;;4.60;;
11962;SDS011;62678;52.130;5.584;2023-04-28T00:58:55;6.22;;;4.63;;
11962;SDS011;62678;52.130;5.584;2023-04-28T01:01:22;8.52;;;5.30;;
11962;SDS011;62678;52.130;5.584;2023-04-28T01:03:49;6.78;;;4.78;;
11962;SDS011;62678;52.130;5.584;2023-04-28T01:06:17;7.43;;;5.03;;
11962;SDS011;62678;52.130;5.584;2023-04-28T01:08:46;8.60;;;5.05;;
11962;SDS011;62678;52.130;5.584;2023-04-28T01:11:15;4.90;;;4.35;;
11962;SDS011;62678;52.130;5.584;2023-04-28T01:13:42;6.78;;;4.53;;
11962;SDS011;62678;52.130;5.584;2023-04-28T01:16:09;6.68;;;5.03;;
11962;SDS011;62678;52.130;5.584;2023-04-28T01:18:36;10.05;;;5.18;;
11962;SDS011;62678;52.130;5.584;2023-04-28T01:21:05;7.45;;;4.80;;
11962;SDS011;62678;52.130;5.584;2023-04-28T01:23:34;6.55;;;4.82;;
11962;SDS011;62678;52.130;5.584;2023-04-28T01:26:02;6.70;;;4.72;;
11962;SDS011;62678;52.130;5.584;2023-04-28T01:28:30;7.05;;;4.70;;
11962;SDS011;62678;52.130;5.584;2023-04-28T01:30:57;9.38;;;4.72;;
11962;SDS011;62678;52.130;5.584;2023-04-28T01:33:24;7.60;;;4.85;;
11962;SDS011;62678;52.130;5.584;2023-04-28T01:35:51;8.32;;;4.88;;
11962;SDS011;62678;52.130;5.584;2023-04-28T01:38:23;5.65;;;4.72;;
11962;SDS011;62678;52.130;5.584;2023-04-28T01:40:49;5.32;;;4.75;;
11962;SDS011;62678;52.130;5.584;2023-04-28T01:43:18;7.53;;;4.72;;
11962;SDS011;62678;52.130;5.584;2023-04-28T01:45:45;5.65;;;4.68;;
11962;SDS011;62678;52.130;5.584;2023-04-28T01:48:12;7.22;;;5.00;;
11962;SDS011;62678;52.130;5.584;2023-04-28T01:50:39;5.82;;;4.40;;
11962;SDS011;62678;52.130;5.584;2023-04-28T01:53:06;6.80;;;4.20;;
11962;SDS011;62678;52.130;5.584;2023-04-28T01:55:32;6.65;;;4.85;;
11962;SDS011;62678;52.130;5.584;2023-04-28T01:58:00;8.48;;;5.20;;
11962;SDS011;62678;52.130;5.584;2023-04-28T02:00:28;7.53;;;4.55;;
11962;SDS011;62678;52.130;5.584;2023-04-28T02:02:55;7.35;;;4.85;;
11962;SDS011;62678;52.130;5.584;2023-04-28T02:05:22;6.25;;;4.75;;
11962;SDS011;62678;52.130;5.584;2023-04-28T02:07:49;5.45;;;4.63;;
11962;SDS011;62678;52.130;5.584;2023-04-28T02:10:16;8.80;;;5.38;;
11962;SDS011;62678;52.130;5.584;2023-04-28T02:12:43;8.77;;;5.10;;
11962;SDS011;62678;52.130;5.584;2023-04-28T02:15:10;6.55;;;4.93;;
11962;SDS011;62678;52.130;5.584;2023-04-28T02:17:39;9.13;;;4.80;;
11962;SDS011;62678;52.130;5.584;2023-04-28T02:20:07;7.25;;;4.60;;
11962;SDS011;62678;52.130;5.584;2023-04-28T02:22:34;7.13;;;4.88;;
11962;SDS011;62678;52.130;5.584;2023-04-28T02:25:01;7.30;;;4.90;;
11962;SDS011;62678;52.130;5.584;2023-04-28T02:27:29;5.35;;;4.50;;
11962;SDS011;62678;52.130;5.584;2023-04-28T02:29:56;7.25;;;4.68;;
11962;SDS011;62678;52.130;5.584;2023-04-28T02:32:23;7.57;;;4.47;;
11962;SDS011;62678;52.130;5.584;2023-04-28T02:34:53;9.23;;;4.95;;
11962;SDS011;62678;52.130;5.584;2023-04-28T02:37:20;5.78;;;4.78;;
11962;SDS011;62678;52.130;5.584;2023-04-28T02:39:47;6.90;;;4.78;;
11962;SDS011;62678;52.130;5.584;2023-04-28T02:42:14;5.72;;;4.80;;
11962;SDS011;62678;52.130;5.584;2023-04-28T02:44:41;6.00;;;4.32;;
11962;SDS011;62678;52.130;5.584;2023-04-28T02:47:08;7.40;;;4.80;;
11962;SDS011;62678;52.130;5.584;2023-04-28T02:49:36;5.72;;;4.50;;
11962;SDS011;62678;52.130;5.584;2023-04-28T02:52:04;5.57;;;4.70;;
11962;SDS011;62678;52.130;5.584;2023-04-28T02:54:31;6.88;;;4.78;;
11962;SDS011;62678;52.130;5.584;2023-04-28T02:57:00;6.30;;;4.75;;
11962;SDS011;62678;52.130;5.584;2023-04-28T02:59:28;9.15;;;5.53;;
11962;SDS011;62678;52.130;5.584;2023-04-28T03:01:59;7.35;;;4.82;;
11962;SDS011;62678;52.130;5.584;2023-04-28T03:04:26;7.75;;;5.07;;
11962;SDS011;62678;52.130;5.584;2023-04-28T03:06:53;7.72;;;4.93;;
11962;SDS011;62678;52.130;5.584;2023-04-28T03:09:22;7.72;;;4.40;;
11962;SDS011;62678;52.130;5.584;2023-04-28T03:11:49;6.90;;;4.90;;
11962;SDS011;62678;52.130;5.584;2023-04-28T03:14:16;7.60;;;4.90;;
11962;SDS011;62678;52.130;5.584;2023-04-28T03:16:43;10.73;;;5.63;;
11962;SDS011;62678;52.130;5.584;2023-04-28T03:19:10;5.68;;;5.00;;
11962;SDS011;62678;52.130;5.584;2023-04-28T03:21:37;8.95;;;4.90;;
11962;SDS011;62678;52.130;5.584;2023-04-28T03:24:04;7.35;;;5.40;;
11962;SDS011;62678;52.130;5.584;2023-04-28T03:26:33;5.70;;;4.65;;
11962;SDS011;62678;52.130;5.584;2023-04-28T03:29:01;10.85;;;5.30;;
11962;SDS011;62678;52.130;5.584;2023-04-28T03:31:28;7.05;;;4.85;;
11962;SDS011;62678;52.130;5.584;2023-04-28T03:33:55;6.00;;;4.93;;
11962;SDS011;62678;52.130;5.584;2023-04-28T03:36:23;7.53;;;4.88;;
11962;SDS011;62678;52.130;5.584;2023-04-28T03:38:51;6.10;;;5.20;;
11962;SDS011;62678;52.130;5.584;2023-04-28T03:41:18;9.27;;;5.30;;
11962;SDS011;62678;52.130;5.584;2023-04-28T03:43:47;7.47;;;5.13;;
11962;SDS011;62678;52.130;5.584;2023-04-28T03:46:14;8.05;;;5.45;;
11962;SDS011;62678;52.130;5.584;2023-04-28T03:48:41;8.70;;;5.10;;
11962;SDS011;62678;52.130;5.584;2023-04-28T03:51:10;12.15;;;5.60;;
11962;SDS011;62678;52.130;5.584;2023-04-28T03:53:37;7.85;;;5.22;;
11962;SDS011;62678;52.130;5.584;2023-04-28T03:56:04;7.15;;;5.13;;
11962;SDS011;62678;52.130;5.584;2023-04-28T03:58:31;7.63;;;4.97;;
11962;SDS011;62678;52.130;5.584;2023-04-28T04:01:00;7.38;;;5.05;;
11962;SDS011;62678;52.130;5.584;2023-04-28T04:03:27;5.97;;;4.90;;
11962;SDS011;62678;52.130;5.584;2023-04-28T04:05:54;8.18;;;5.13;;
11962;SDS011;62678;52.130;5.584;2023-04-28T04:08:22;9.15;;;5.25;;
11962;SDS011;62678;52.130;5.584;2023-04-28T04:10:49;5.80;;;5.20;;
11962;SDS011;62678;52.130;5.584;2023-04-28T04:13:16;9.20;;;5.40;;
11962;SDS011;62678;52.130;5.584;2023-04-28T04:15:43;7.15;;;5.53;;
11962;SDS011;62678;52.130;5.584;2023-04-28T04:18:12;6.82;;;5.18;;
11962;SDS011;62678;52.130;5.584;2023-04-28T04:20:39;8.60;;;5.50;;
11962;SDS011;62678;52.130;5.584;2023-04-28T04:23:06;8.68;;;5.82;;
11962;SDS011;62678;52.130;5.584;2023-04-28T04:25:33;8.57;;;5.80;;
11962;SDS011;62678;52.130;5.584;2023-04-28T04:28:01;9.50;;;6.13;;
11962;SDS011;62678;52.130;5.584;2023-04-28T04:30:28;8.35;;;5.47;;
11962;SDS011;62678;52.130;5.584;2023-04-28T04:32:55;7.80;;;5.50;;
11962;SDS011;62678;52.130;5.584;2023-04-28T04:35:23;9.55;;;5.65;;
11962;SDS011;62678;52.130;5.584;2023-04-28T04:37:50;8.63;;;5.65;;
11962;SDS011;62678;52.130;5.584;2023-04-28T04:40:17;7.13;;;5.80;;
11962;SDS011;62678;52.130;5.584;2023-04-28T04:42:44;7.38;;;5.65;;
11962;SDS011;62678;52.130;5.584;2023-04-28T04:45:11;9.27;;;5.63;;
11962;SDS011;62678;52.130;5.584;2023-04-28T04:47:38;8.13;;;5.38;;
11962;SDS011;62678;52.130;5.584;2023-04-28T04:50:06;9.77;;;5.75;;
11962;SDS011;62678;52.130;5.584;2023-04-28T04:52:36;7.32;;;5.82;;
11962;SDS011;62678;52.130;5.584;2023-04-28T04:55:03;7.93;;;6.20;;
11962;SDS011;62678;52.130;5.584;2023-04-28T04:57:31;11.00;;;5.60;;
11962;SDS011;62678;52.130;5.584;2023-04-28T04:59:58;7.88;;;5.95;;
11962;SDS011;62678;52.130;5.584;2023-04-28T05:02:25;8.02;;;5.85;;
11962;SDS011;62678;52.130;5.584;2023-04-28T05:04:52;6.50;;;5.47;;
11962;SDS011;62678;52.130;5.584;2023-04-28T05:07:19;12.50;;;6.47;;
11962;SDS011;62678;52.130;5.584;2023-04-28T05:09:47;10.88;;;5.85;;
11962;SDS011;62678;52.130;5.584;2023-04-28T05:12:14;7.25;;;5.20;;
11962;SDS011;62678;52.130;5.584;2023-04-28T05:14:41;9.98;;;5.68;;
11962;SDS011;62678;52.130;5.584;2023-04-28T05:17:08;7.60;;;6.00;;
11962;SDS011;62678;52.130;5.584;2023-04-28T05:19:35;9.57;;;6.57;;
11962;SDS011;62678;52.130;5.584;2023-04-28T05:22:02;9.95;;;6.65;;
11962;SDS011;62678;52.130;5.584;2023-04-28T05:24:29;9.70;;;6.40;;
11962;SDS011;62678;52.130;5.584;2023-04-28T05:26:58;8.57;;;6.85;;
11962;SDS011;62678;52.130;5.584;2023-04-28T05:29:25;8.48;;;6.72;;
11962;SDS011;62678;52.130;5.584;2023-04-28T05:31:52;10.02;;;7.05;;
11962;SDS011;62678;52.130;5.584;2023-04-28T05:34:19;11.32;;;7.80;;
11962;SDS011;62678;52.130;5.584;2023-04-28T05:36:46;9.45;;;7.13;;
11962;SDS011;62678;52.130;5.584;2023-04-28T05:39:14;11.15;;;7.45;;
11962;SDS011;62678;52.130;5.584;2023-04-28T05:41:40;11.07;;;7.03;;
11962;SDS011;62678;52.130;5.584;2023-04-28T05:44:09;11.57;;;6.95;;
11962;SDS011;62678;52.130;5.584;2023-04-28T05:46:36;12.70;;;7.63;;
11962;SDS011;62678;52.130;5.584;2023-04-28T05:49:03;11.45;;;7.70;;
11962;SDS011;62678;52.130;5.584;2023-04-28T05:51:30;11.23;;;8.38;;
11962;SDS011;62678;52.130;5.584;2023-04-28T05:53:57;16.60;;;9.10;;
11962;SDS011;62678;52.130;5.584;2023-04-28T05:56:24;12.82;;;9.25;;
11962;SDS011;62678;52.130;5.584;2023-04-28T05:58:52;14.63;;;9.27;;
11962;SDS011;62678;52.130;5.584;2023-04-28T06:01:21;13.80;;;9.15;;
11962;SDS011;62678;52.130;5.584;2023-04-28T06:03:48;13.68;;;10.15;;
11962;SDS011;62678;52.130;5.584;2023-04-28T06:06:15;11.63;;;9.45;;
11962;SDS011;62678;52.130;5.584;2023-04-28T06:08:42;15.38;;;9.95;;
11962;SDS011;62678;52.130;5.584;2023-04-28T06:11:10;15.15;;;10.05;;
11962;SDS011;62678;52.130;5.584;2023-04-28T06:13:37;14.52;;;10.48;;
11962;SDS011;62678;52.130;5.584;2023-04-28T06:16:04;16.40;;;11.30;;
11962;SDS011;62678;52.130;5.584;2023-04-28T06:18:33;14.13;;;10.48;;
11962;SDS011;62678;52.130;5.584;2023-04-28T06:21:01;16.33;;;10.70;;
11962;SDS011;62678;52.130;5.584;2023-04-28T06:23:28;20.30;;;12.30;;
11962;SDS011;62678;52.130;5.584;2023-04-28T06:25:55;16.05;;;12.38;;
11962;SDS011;62678;52.130;5.584;2023-04-28T06:28:22;18.13;;;12.27;;
11962;SDS011;62678;52.130;5.584;2023-04-28T06:30:49;21.67;;;14.32;;
11962;SDS011;62678;52.130;5.584;2023-04-28T06:33:16;18.98;;;13.45;;
11962;SDS011;62678;52.130;5.584;2023-04-28T06:35:44;17.98;;;12.30;;
11962;SDS011;62678;52.130;5.584;2023-04-28T06:38:11;16.90;;;12.00;;
11962;SDS011;62678;52.130;5.584;2023-04-28T06:40:38;16.50;;;12.40;;
11962;SDS011;62678;52.130;5.584;2023-04-28T06:43:05;18.98;;;12.55;;
11962;SDS011;62678;52.130;5.584;2023-04-28T06:45:32;19.30;;;12.15;;
11962;SDS011;62678;52.130;5.584;2023-04-28T06:48:01;18.15;;;11.90;;
11962;SDS011;62678;52.130;5.584;2023-04-28T06:50:28;15.25;;;11.95;;
11962;SDS011;62678;52.130;5.584;2023-04-28T06:52:56;17.42;;;11.88;;
11962;SDS011;62678;52.130;5.584;2023-04-28T06:55:24;16.95;;;11.95;;
11962;SDS011;62678;52.130;5.584;2023-04-28T06:57:52;18.17;;;12.45;;
11962;SDS011;62678;52.130;5.584;2023-04-28T07:00:19;17.75;;;12.88;;
11962;SDS011;62678;52.130;5.584;2023-04-28T07:02:46;15.50;;;12.48;;
11962;SDS011;62678;52.130;5.584;2023-04-28T07:05:13;18.80;;;12.23;;
11962;SDS011;62678;52.130;5.584;2023-04-28T07:07:40;17.48;;;12.95;;
11962;SDS011;62678;52.130;5.584;2023-04-28T07:10:09;18.67;;;13.10;;
11962;SDS011;62678;52.130;5.584;2023-04-28T07:12:37;17.17;;;12.68;;
11962;SDS011;62678;52.130;5.584;2023-04-28T07:15:04;16.30;;;13.13;;
11962;SDS011;62678;52.130;5.584;2023-04-28T07:17:32;18.25;;;13.45;;
11962;SDS011;62678;52.130;5.584;2023-04-28T07:19:59;15.02;;;12.13;;
11962;SDS011;62678;52.130;5.584;2023-04-28T07:22:26;18.52;;;13.55;;
11962;SDS011;62678;52.130;5.584;2023-04-28T07:24:53;17.65;;;13.90;;
11962;SDS011;62678;52.130;5.584;2023-04-28T07:27:21;16.25;;;13.07;;
11962;SDS011;62678;52.130;5.584;2023-04-28T07:29:48;17.85;;;13.90;;
11962;SDS011;62678;52.130;5.584;2023-04-28T07:32:15;17.33;;;13.13;;
11962;SDS011;62678;52.130;5.584;2023-04-28T07:34:42;18.92;;;13.70;;
11962;SDS011;62678;52.130;5.584;2023-04-28T07:37:09;16.98;;;13.68;;
11962;SDS011;62678;52.130;5.584;2023-04-28T07:39:36;21.30;;;14.68;;
11962;SDS011;62678;52.130;5.584;2023-04-28T07:42:04;17.60;;;13.30;;
11962;SDS011;62678;52.130;5.584;2023-04-28T07:44:33;21.23;;;13.90;;
11962;SDS011;62678;52.130;5.584;2023-04-28T07:47:01;20.52;;;14.50;;
11962;SDS011;62678;52.130;5.584;2023-04-28T07:49:29;20.33;;;13.98;;
11962;SDS011;62678;52.130;5.584;2023-04-28T07:51:56;18.13;;;13.70;;
11962;SDS011;62678;52.130;5.584;2023-04-28T07:54:23;19.95;;;14.77;;
11962;SDS011;62678;52.130;5.584;2023-04-28T07:56:50;20.13;;;13.52;;
11962;SDS011;62678;52.130;5.584;2023-04-28T07:59:17;17.58;;;13.23;;
11962;SDS011;62678;52.130;5.584;2023-04-28T08:01:46;19.98;;;14.10;;
11962;SDS011;62678;52.130;5.584;2023-04-28T08:04:13;20.63;;;14.40;;
11962;SDS011;62678;52.130;5.584;2023-04-28T08:06:40;15.40;;;13.60;;
11962;SDS011;62678;52.130;5.584;2023-04-28T08:09:07;18.88;;;13.82;;
11962;SDS011;62678;52.130;5.584;2023-04-28T08:11:34;17.65;;;13.10;;
11962;SDS011;62678;52.130;5.584;2023-04-28T08:14:01;18.92;;;14.27;;
11962;SDS011;62678;52.130;5.584;2023-04-28T08:16:29;18.55;;;13.25;;
11962;SDS011;62678;52.130;5.584;2023-04-28T08:18:58;16.55;;;13.00;;
11962;SDS011;62678;52.130;5.584;2023-04-28T08:21:25;16.63;;;13.20;;
11962;SDS011;62678;52.130;5.584;2023-04-28T08:23:52;15.85;;;12.90;;
11962;SDS011;62678;52.130;5.584;2023-04-28T08:26:20;19.63;;;13.30;;
11962;SDS011;62678;52.130;5.584;2023-04-28T08:28:48;17.88;;;13.85;;
11962;SDS011;62678;52.130;5.584;2023-04-28T08:31:16;15.30;;;13.10;;
11962;SDS011;62678;52.130;5.584;2023-04-28T08:33:43;31.00;;;21.65;;
11962;SDS011;62678;52.130;5.584;2023-04-28T08:36:14;21.25;;;15.43;;
11962;SDS011;62678;52.130;5.584;2023-04-28T08:38:42;18.58;;;13.18;;
11962;SDS011;62678;52.130;5.584;2023-04-28T08:41:09;17.85;;;13.65;;
11962;SDS011;62678;52.130;5.584;2023-04-28T08:43:39;19.50;;;14.18;;
11962;SDS011;62678;52.130;5.584;2023-04-28T08:46:07;18.63;;;14.02;;
11962;SDS011;62678;52.130;5.584;2023-04-28T08:48:38;21.38;;;14.50;;
11962;SDS011;62678;52.130;5.584;2023-04-28T08:51:07;18.20;;;14.43;;
11962;SDS011;62678;52.130;5.584;2023-04-28T08:53:37;20.30;;;14.73;;
11962;SDS011;62678;52.130;5.584;2023-04-28T08:56:05;21.73;;;14.98;;
11962;SDS011;62678;52.130;5.584;2023-04-28T08:58:34;20.00;;;15.43;;
11962;SDS011;62678;52.130;5.584;2023-04-28T09:01:02;19.10;;;14.68;;
11962;SDS011;62678;52.130;5.584;2023-04-28T09:03:29;16.85;;;14.50;;
11962;SDS011;62678;52.130;5.584;2023-04-28T09:05:58;19.55;;;15.50;;
11962;SDS011;62678;52.130;5.584;2023-04-28T09:08:26;17.92;;;14.82;;
11962;SDS011;62678;52.130;5.584;2023-04-28T09:11:07;20.70;;;15.82;;
11962;SDS011;62678;52.130;5.584;2023-04-28T09:13:37;20.60;;;15.60;;
11962;SDS011;62678;52.130;5.584;2023-04-28T09:16:05;17.45;;;15.13;;
11962;SDS011;62678;52.130;5.584;2023-04-28T09:18:33;19.08;;;15.05;;
11962;SDS011;62678;52.130;5.584;2023-04-28T09:21:03;19.60;;;15.88;;
11962;SDS011;62678;52.130;5.584;2023-04-28T09:23:31;19.17;;;15.63;;
11962;SDS011;62678;52.130;5.584;2023-04-28T09:25:59;20.75;;;15.40;;
11962;SDS011;62678;52.130;5.584;2023-04-28T09:28:29;19.02;;;15.93;;
11962;SDS011;62678;52.130;5.584;2023-04-28T09:30:56;21.77;;;16.27;;
11962;SDS011;62678;52.130;5.584;2023-04-28T09:33:23;20.10;;;16.45;;
11962;SDS011;62678;52.130;5.584;2023-04-28T09:35:51;19.55;;;17.23;;
11962;SDS011;62678;52.130;5.584;2023-04-28T09:38:18;19.77;;;17.00;;
11962;SDS011;62678;52.130;5.584;2023-04-28T09:40:50;21.15;;;17.45;;
11962;SDS011;62678;52.130;5.584;2023-04-28T09:43:22;20.77;;;18.33;;
11962;SDS011;62678;52.130;5.584;2023-04-28T09:45:54;28.15;;;19.77;;
11962;SDS011;62678;52.130;5.584;2023-04-28T09:48:29;29.48;;;20.30;;
11962;SDS011;62678;52.130;5.584;2023-04-28T09:50:58;23.33;;;19.85;;
11962;SDS011;62678;52.130;5.584;2023-04-28T09:53:27;24.05;;;19.75;;
11962;SDS011;62678;52.130;5.584;2023-04-28T09:55:55;24.08;;;19.70;;
11962;SDS011;62678;52.130;5.584;2023-04-28T09:58:25;23.17;;;19.20;;
11962;SDS011;62678;52.130;5.584;2023-04-28T10:00:55;25.42;;;20.27;;
11962;SDS011;62678;52.130;5.584;2023-04-28T10:03:24;23.90;;;20.83;;
11962;SDS011;62678;52.130;5.584;2023-04-28T10:05:54;25.73;;;19.90;;
11962;SDS011;62678;52.130;5.584;2023-04-28T10:08:23;27.75;;;22.30;;
11962;SDS011;62678;52.130;5.584;2023-04-28T10:10:51;25.27;;;20.33;;
11962;SDS011;62678;52.130;5.584;2023-04-28T10:13:19;25.27;;;20.05;;
11962;SDS011;62678;52.130;5.584;2023-04-28T10:15:46;22.30;;;19.70;;
11962;SDS011;62678;52.130;5.584;2023-04-28T10:18:15;29.58;;;21.10;;
11962;SDS011;62678;52.130;5.584;2023-04-28T10:20:43;22.88;;;20.10;;
11962;SDS011;62678;52.130;5.584;2023-04-28T10:23:24;25.45;;;21.77;;
11962;SDS011;62678;52.130;5.584;2023-04-28T10:26:02;25.83;;;22.95;;
11962;SDS011;62678;52.130;5.584;2023-04-28T10:28:34;24.17;;;21.60;;
11962;SDS011;62678;52.130;5.584;2023-04-28T10:31:08;25.85;;;23.05;;
11962;SDS011;62678;52.130;5.584;2023-04-28T10:33:38;32.15;;;27.40;;
11962;SDS011;62678;52.130;5.584;2023-04-28T10:36:05;28.70;;;24.13;;
11962;SDS011;62678;52.130;5.584;2023-04-28T10:38:33;28.17;;;23.98;;
11962;SDS011;62678;52.130;5.584;2023-04-28T10:41:02;24.70;;;21.60;;
11962;SDS011;62678;52.130;5.584;2023-04-28T10:43:32;26.23;;;23.00;;
11962;SDS011;62678;52.130;5.584;2023-04-28T10:46:02;27.77;;;22.70;;
11962;SDS011;62678;52.130;5.584;2023-04-28T10:51:33;25.90;;;22.75;;
11962;SDS011;62678;52.130;5.584;2023-04-28T10:54:10;29.23;;;24.17;;
11962;SDS011;62678;52.130;5.584;2023-04-28T10:56:44;32.50;;;25.05;;
11962;SDS011;62678;52.130;5.584;2023-04-28T10:59:45;26.55;;;23.02;;
11962;SDS011;62678;52.130;5.584;2023-04-28T11:05:13;22.85;;;20.55;;
11962;SDS011;62678;52.130;5.584;2023-04-28T11:13:46;18.23;;;16.38;;
11962;SDS011;62678;52.130;5.584;2023-04-28T11:16:14;18.73;;;16.85;;
11962;SDS011;62678;52.130;5.584;2023-04-28T11:18:53;18.05;;;16.25;;
11962;SDS011;62678;52.130;5.584;2023-04-28T11:21:25;16.55;;;14.93;;
11962;SDS011;62678;52.130;5.584;2023-04-28T11:23:53;17.70;;;15.88;;
11962;SDS011;62678;52.130;5.584;2023-04-28T11:26:22;15.93;;;14.32;;
11962;SDS011;62678;52.130;5.584;2023-04-28T11:28:50;17.33;;;14.85;;
11962;SDS011;62678;52.130;5.584;2023-04-28T11:31:18;15.88;;;14.27;;
11962;SDS011;62678;52.130;5.584;2023-04-28T11:33:48;16.08;;;13.35;;
11962;SDS011;62678;52.130;5.584;2023-04-28T11:36:21;16.38;;;14.68;;
11962;SDS011;62678;52.130;5.584;2023-04-28T11:38:54;16.40;;;14.70;;
11962;SDS011;62678;52.130;5.584;2023-04-28T11:41:21;16.92;;;15.13;;
11962;SDS011;62678;52.130;5.584;2023-04-28T11:43:50;18.90;;;16.95;;
11962;SDS011;62678;52.130;5.584;2023-04-28T11:46:19;18.90;;;16.80;;
11962;SDS011;62678;52.130;5.584;2023-04-28T11:48:47;17.80;;;15.38;;
11962;SDS011;62678;52.130;5.584;2023-04-28T11:51:36;16.50;;;14.80;;
11962;SDS011;62678;52.130;5.584;2023-04-28T11:54:07;15.77;;;14.18;;
11962;SDS011;62678;52.130;5.584;2023-04-28T11:56:39;16.42;;;14.70;;
11962;SDS011;62678;52.130;5.584;2023-04-28T11:59:08;15.57;;;13.93;;
11962;SDS011;62678;52.130;5.584;2023-04-28T12:01:44;15.65;;;13.45;;
11962;SDS011;62678;52.130;5.584;2023-04-28T12:04:25;15.57;;;13.10;;
11962;SDS011;62678;52.130;5.584;2023-04-28T12:06:59;14.57;;;13.05;;
11962;SDS011;62678;52.130;5.584;2023-04-28T12:09:29;18.23;;;13.18;;
11962;SDS011;62678;52.130;5.584;2023-04-28T12:11:57;15.52;;;13.65;;
11962;SDS011;62678;52.130;5.584;2023-04-28T12:14:27;17.27;;;13.30;;
11962;SDS011;62678;52.130;5.584;2023-04-28T12:16:56;16.53;;;13.03;;
11962;SDS011;62678;52.130;5.584;2023-04-28T12:19:24;16.52;;;12.50;;
11962;SDS011;62678;52.130;5.584;2023-04-28T12:22:01;13.20;;;11.43;;
11962;SDS011;62678;52.130;5.584;2023-04-28T12:24:31;14.05;;;11.38;;
11962;SDS011;62678;52.130;5.584;2023-04-28T12:27:15;17.30;;;11.68;;
11962;SDS011;62678;52.130;5.584;2023-04-28T12:29:45;13.40;;;11.75;;
11962;SDS011;62678;52.130;5.584;2023-04-28T12:32:13;13.13;;;10.75;;
11962;SDS011;62678;52.130;5.584;2023-04-28T12:34:43;13.80;;;11.07;;
11962;SDS011;62678;52.130;5.584;2023-04-28T12:37:13;14.15;;;11.38;;
11962;SDS011;62678;52.130;5.584;2023-04-28T12:39:40;16.80;;;11.63;;
11962;SDS011;62678;52.130;5.584;2023-04-28T12:42:08;16.80;;;11.40;;
11962;SDS011;62678;52.130;5.584;2023-04-28T12:44:35;15.25;;;11.13;;
11962;SDS011;62678;52.130;5.584;2023-04-28T12:47:03;18.08;;;12.05;;
11962;SDS011;62678;52.130;5.584;2023-04-28T12:49:32;16.88;;;12.40;;
11962;SDS011;62678;52.130;5.584;2023-04-28T12:52:00;17.52;;;11.10;;
11962;SDS011;62678;52.130;5.584;2023-04-28T12:54:30;14.57;;;10.65;;
11962;SDS011;62678;52.130;5.584;2023-04-28T12:56:58;12.35;;;9.43;;
11962;SDS011;62678;52.130;5.584;2023-04-28T12:59:26;13.32;;;10.85;;
11962;SDS011;62678;52.130;5.584;2023-04-28T13:01:53;11.90;;;9.02;;
11962;SDS011;62678;52.130;5.584;2023-04-28T13:04:22;12.68;;;7.72;;
11962;SDS011;62678;52.130;5.584;2023-04-28T13:06:50;7.82;;;6.10;;
11962;SDS011;62678;52.130;5.584;2023-04-28T13:09:19;7.90;;;5.45;;
11962;SDS011;62678;52.130;5.584;2023-04-28T13:11:48;5.95;;;5.32;;
11962;SDS011;62678;52.130;5.584;2023-04-28T13:14:15;5.95;;;4.85;;
11962;SDS011;62678;52.130;5.584;2023-04-28T13:16:42;4.88;;;4.38;;
11962;SDS011;62678;52.130;5.584;2023-04-28T13:19:10;4.72;;;4.30;;
11962;SDS011;62678;52.130;5.584;2023-04-28T13:21:41;6.03;;;4.40;;
11962;SDS011;62678;52.130;5.584;2023-04-28T13:24:11;4.25;;;3.65;;
11962;SDS011;62678;52.130;5.584;2023-04-28T13:26:38;4.90;;;3.80;;
11962;SDS011;62678;52.130;5.584;2023-04-28T13:29:09;5.20;;;3.22;;
11962;SDS011;62678;52.130;5.584;2023-04-28T13:31:37;3.78;;;3.42;;
11962;SDS011;62678;52.130;5.584;2023-04-28T13:34:04;4.18;;;3.75;;
11962;SDS011;62678;52.130;5.584;2023-04-28T13:36:32;3.90;;;3.58;;
11962;SDS011;62678;52.130;5.584;2023-04-28T13:38:59;5.90;;;4.53;;
11962;SDS011;62678;52.130;5.584;2023-04-28T13:41:27;5.40;;;4.30;;
11962;SDS011;62678;52.130;5.584;2023-04-28T13:43:55;6.10;;;4.90;;
11962;SDS011;62678;52.130;5.584;2023-04-28T13:46:23;6.10;;;5.60;;
11962;SDS011;62678;52.130;5.584;2023-04-28T13:48:51;6.70;;;6.20;;
11962;SDS011;62678;52.130;5.584;2023-04-28T13:51:18;7.40;;;6.70;;
11962;SDS011;62678;52.130;5.584;2023-04-28T13:53:45;10.00;;;8.82;;
11962;SDS011;62678;52.130;5.584;2023-04-28T13:56:12;8.25;;;7.50;;
11962;SDS011;62678;52.130;5.584;2023-04-28T13:58:39;8.25;;;7.55;;
11962;SDS011;62678;52.130;5.584;2023-04-28T14:01:07;8.32;;;7.60;;
11962;SDS011;62678;52.130;5.584;2023-04-28T14:03:35;9.15;;;8.25;;
11962;SDS011;62678;52.130;5.584;2023-04-28T14:06:02;9.38;;;8.55;;
11962;SDS011;62678;52.130;5.584;2023-04-28T14:08:33;9.70;;;8.65;;
11962;SDS011;62678;52.130;5.584;2023-04-28T14:11:00;10.25;;;9.43;;
11962;SDS011;62678;52.130;5.584;2023-04-28T14:13:27;8.98;;;8.27;;
11962;SDS011;62678;52.130;5.584;2023-04-28T14:15:55;10.68;;;9.68;;
11962;SDS011;62678;52.130;5.584;2023-04-28T14:18:22;10.07;;;9.18;;
11962;SDS011;62678;52.130;5.584;2023-04-28T14:20:50;9.93;;;9.13;;
11962;SDS011;62678;52.130;5.584;2023-04-28T14:23:18;10.77;;;9.82;;
11962;SDS011;62678;52.130;5.584;2023-04-28T14:25:45;10.40;;;9.40;;
11962;SDS011;62678;52.130;5.584;2023-04-28T14:28:12;8.98;;;8.13;;
11962;SDS011;62678;52.130;5.584;2023-04-28T14:30:39;9.10;;;8.40;;
11962;SDS011;62678;52.130;5.584;2023-04-28T14:33:06;9.13;;;8.43;;
11962;SDS011;62678;52.130;5.584;2023-04-28T14:35:33;7.97;;;7.38;;
11962;SDS011;62678;52.130;5.584;2023-04-28T14:38:01;9.50;;;8.57;;
11962;SDS011;62678;52.130;5.584;2023-04-28T14:40:28;8.95;;;8.25;;
11962;SDS011;62678;52.130;5.584;2023-04-28T14:42:56;7.80;;;7.13;;
11962;SDS011;62678;52.130;5.584;2023-04-28T14:45:23;10.35;;;9.55;;
11962;SDS011;62678;52.130;5.584;2023-04-28T14:47:50;9.52;;;8.73;;
11962;SDS011;62678;52.130;5.584;2023-04-28T14:50:17;10.32;;;9.40;;
11962;SDS011;62678;52.130;5.584;2023-04-28T14:52:45;11.27;;;10.38;;
11962;SDS011;62678;52.130;5.584;2023-04-28T14:55:14;9.48;;;8.68;;